Time;durP1;ratioP1;P1;durP2;ratioP2;P2;SDS_P1;SDS_P2;PMS_P1;PMS_P2;Temp;Humidity;BMP_temperature;BMP_pressure;BME280_temperature;BME280_humidity;BME280_pressure;Samples;Min_cycle;Max_cycle;Signal;HPM_P1;HPM_P2
2021/12/19 00:00:28;;;;;;;38.95;14.7;;;;;;;-0.17;100;96663.47;;;;
2021/12/19 00:01:42;;;;;;;38.95;14.7;;;;;;;-0.17;100;96663.47;;;;
2021/12/19 00:02:59;;;;;;;38.95;14.7;;;;;;;-0.17;100;96663.47;;;;
2021/12/19 00:04:14;;;;;;;38.95;14.7;;;;;;;-0.17;100;96663.47;;;;
2021/12/19 00:10:28;;;;;;;31.6;12.8;;;;;;;-0.19;100;96638.03;;;;
2021/12/19 00:11:29;;;;;;;31.6;12.8;;;;;;;-0.19;100;96638.03;;;;
2021/12/19 00:12:30;;;;;;;31.6;12.8;;;;;;;-0.19;100;96638.03;;;;
2021/12/19 00:13:31;;;;;;;31.6;12.8;;;;;;;-0.19;100;96638.03;;;;
2021/12/19 00:14:31;;;;;;;31.6;12.8;;;;;;;-0.19;100;96638.03;;;;
2021/12/19 00:15:32;;;;;;;31.6;12.8;;;;;;;-0.19;100;96638.03;;;;
2021/12/19 00:16:33;;;;;;;31.6;12.8;;;;;;;-0.19;100;96638.03;;;;
2021/12/19 00:17:33;;;;;;;38.55;13.05;;;;;;;-0.21;100;96638.17;;;;
2021/12/19 00:18:34;;;;;;;38.55;13.05;;;;;;;-0.21;100;96638.17;;;;
2021/12/19 00:19:35;;;;;;;38.55;13.05;;;;;;;-0.21;100;96638.17;;;;
2021/12/19 00:20:35;;;;;;;38.55;13.05;;;;;;;-0.21;100;96638.17;;;;
2021/12/19 00:21:36;;;;;;;38.55;13.05;;;;;;;-0.21;100;96638.17;;;;
2021/12/19 00:22:36;;;;;;;38.55;13.05;;;;;;;-0.21;100;96638.17;;;;
2021/12/19 00:23:37;;;;;;;38.55;13.05;;;;;;;-0.21;100;96638.17;;;;
2021/12/19 00:24:38;;;;;;;38.55;13.05;;;;;;;-0.21;100;96638.17;;;;
2021/12/19 00:25:39;;;;;;;38.55;13.05;;;;;;;-0.21;100;96638.17;;;;
2021/12/19 00:26:39;;;;;;;38.55;13.05;;;;;;;-0.21;100;96638.17;;;;
2021/12/19 00:27:40;;;;;;;38.55;13.05;;;;;;;-0.21;100;96638.17;;;;
2021/12/19 00:28:40;;;;;;;37;12.65;;;;;;;-0.22;100;96654.66;;;;
2021/12/19 00:29:41;;;;;;;37;12.65;;;;;;;-0.22;100;96654.66;;;;
2021/12/19 00:30:42;;;;;;;37;12.65;;;;;;;-0.22;100;96654.66;;;;
2021/12/19 00:31:45;;;;;;;37;12.65;;;;;;;-0.22;100;96654.66;;;;
2021/12/19 00:32:46;;;;;;;37;12.65;;;;;;;-0.22;100;96654.66;;;;
2021/12/19 00:33:46;;;;;;;37;12.65;;;;;;;-0.22;100;96654.66;;;;
2021/12/19 00:34:50;;;;;;;37;12.65;;;;;;;-0.22;100;96654.66;;;;
2021/12/19 00:35:51;;;;;;;37;12.65;;;;;;;-0.22;100;96654.66;;;;
2021/12/19 00:36:52;;;;;;;37;12.65;;;;;;;-0.22;100;96654.66;;;;
2021/12/19 00:37:53;;;;;;;37;12.65;;;;;;;-0.22;100;96654.66;;;;
2021/12/19 00:38:53;;;;;;;37;12.65;;;;;;;-0.22;100;96654.66;;;;
2021/12/19 00:39:54;;;;;;;34.39999;12.85;;;;;;;-0.24;100;96632.73;;;;
2021/12/19 00:40:54;;;;;;;34.39999;12.85;;;;;;;-0.24;100;96632.73;;;;
2021/12/19 00:41:55;;;;;;;34.39999;12.85;;;;;;;-0.24;100;96632.73;;;;
2021/12/19 00:43:03;;;;;;;34.39999;12.85;;;;;;;-0.24;100;96632.73;;;;
2021/12/19 00:44:08;;;;;;;34.39999;12.85;;;;;;;-0.24;100;96632.73;;;;
2021/12/19 00:45:16;;;;;;;34.39999;12.85;;;;;;;-0.24;100;96632.73;;;;
2021/12/19 00:46:19;;;;;;;34.39999;12.85;;;;;;;-0.24;100;96632.73;;;;
2021/12/19 00:47:20;;;;;;;34.39999;12.85;;;;;;;-0.24;100;96632.73;;;;
2021/12/19 00:48:20;;;;;;;34.39999;12.85;;;;;;;-0.24;100;96632.73;;;;
2021/12/19 00:49:22;;;;;;;34.39999;12.85;;;;;;;-0.24;100;96632.73;;;;
2021/12/19 00:50:23;;;;;;;35.25;13.45;;;;;;;-0.25;100;96623.58;;;;
2021/12/19 00:51:25;;;;;;;35.25;13.45;;;;;;;-0.25;100;96623.58;;;;
2021/12/19 00:52:26;;;;;;;35.25;13.45;;;;;;;-0.25;100;96623.58;;;;
2021/12/19 00:53:26;;;;;;;35.25;13.45;;;;;;;-0.25;100;96623.58;;;;
2021/12/19 00:54:27;;;;;;;35.25;13.45;;;;;;;-0.25;100;96623.58;;;;
2021/12/19 00:55:28;;;;;;;35.25;13.45;;;;;;;-0.25;100;96623.58;;;;
2021/12/19 00:56:29;;;;;;;35.25;13.45;;;;;;;-0.25;100;96623.58;;;;
2021/12/19 00:57:30;;;;;;;35.25;13.45;;;;;;;-0.25;100;96623.58;;;;
2021/12/19 00:58:30;;;;;;;35.25;13.45;;;;;;;-0.25;100;96623.58;;;;
2021/12/19 00:59:31;;;;;;;35.25;13.45;;;;;;;-0.25;100;96623.58;;;;
2021/12/19 01:00:32;;;;;;;35.25;13.45;;;;;;;-0.25;100;96623.58;;;;
2021/12/19 01:01:34;;;;;;;35.15001;13.1;;;;;;;-0.28;100;96627.76;;;;
2021/12/19 01:02:36;;;;;;;35.15001;13.1;;;;;;;-0.28;100;96627.76;;;;
2021/12/19 01:03:36;;;;;;;35.15001;13.1;;;;;;;-0.28;100;96627.76;;;;
2021/12/19 01:04:38;;;;;;;35.15001;13.1;;;;;;;-0.28;100;96627.76;;;;
2021/12/19 01:05:39;;;;;;;35.15001;13.1;;;;;;;-0.28;100;96627.76;;;;
2021/12/19 01:06:40;;;;;;;35.15001;13.1;;;;;;;-0.28;100;96627.76;;;;
2021/12/19 01:07:43;;;;;;;35.15001;13.1;;;;;;;-0.28;100;96627.76;;;;
2021/12/19 01:08:44;;;;;;;35.15001;13.1;;;;;;;-0.28;100;96627.76;;;;
2021/12/19 01:09:45;;;;;;;35.15001;13.1;;;;;;;-0.28;100;96627.76;;;;
2021/12/19 01:10:45;;;;;;;35.15001;13.1;;;;;;;-0.28;100;96627.76;;;;
2021/12/19 01:11:49;;;;;;;35.15001;13.1;;;;;;;-0.28;100;96627.76;;;;
2021/12/19 01:12:49;;;;;;;36.15;13.4;;;;;;;-0.32;100;96624.59;;;;
2021/12/19 01:13:50;;;;;;;36.15;13.4;;;;;;;-0.32;100;96624.59;;;;
2021/12/19 01:14:51;;;;;;;36.15;13.4;;;;;;;-0.32;100;96624.59;;;;
2021/12/19 01:15:53;;;;;;;36.15;13.4;;;;;;;-0.32;100;96624.59;;;;
2021/12/19 01:16:55;;;;;;;36.15;13.4;;;;;;;-0.32;100;96624.59;;;;
2021/12/19 01:17:56;;;;;;;36.15;13.4;;;;;;;-0.32;100;96624.59;;;;
2021/12/19 01:18:57;;;;;;;36.15;13.4;;;;;;;-0.32;100;96624.59;;;;
2021/12/19 01:19:58;;;;;;;36.15;13.4;;;;;;;-0.32;100;96624.59;;;;
2021/12/19 01:20:58;;;;;;;36.15;13.4;;;;;;;-0.32;100;96624.59;;;;
2021/12/19 01:21:59;;;;;;;36.15;13.4;;;;;;;-0.32;100;96624.59;;;;
2021/12/19 01:23:00;;;;;;;36.15;13.4;;;;;;;-0.32;100;96624.59;;;;
2021/12/19 01:24:01;;;;;;;36.7;14;;;;;;;-0.33;100;96621.61;;;;
2021/12/19 01:25:02;;;;;;;36.7;14;;;;;;;-0.33;100;96621.61;;;;
2021/12/19 01:26:03;;;;;;;36.7;14;;;;;;;-0.33;100;96621.61;;;;
2021/12/19 01:27:04;;;;;;;36.7;14;;;;;;;-0.33;100;96621.61;;;;
2021/12/19 01:28:05;;;;;;;36.7;14;;;;;;;-0.33;100;96621.61;;;;
2021/12/19 01:29:06;;;;;;;36.7;14;;;;;;;-0.33;100;96621.61;;;;
2021/12/19 01:30:06;;;;;;;36.7;14;;;;;;;-0.33;100;96621.61;;;;
2021/12/19 01:31:09;;;;;;;36.7;14;;;;;;;-0.33;100;96621.61;;;;
2021/12/19 01:32:11;;;;;;;36.7;14;;;;;;;-0.33;100;96621.61;;;;
2021/12/19 01:33:12;;;;;;;36.7;14;;;;;;;-0.33;100;96621.61;;;;
2021/12/19 01:34:13;;;;;;;38.2;15.25;;;;;;;-0.31;100;96611.7;;;;
2021/12/19 01:35:13;;;;;;;38.2;15.25;;;;;;;-0.31;100;96611.7;;;;
2021/12/19 01:36:18;;;;;;;38.2;15.25;;;;;;;-0.31;100;96611.7;;;;
2021/12/19 01:37:19;;;;;;;38.2;15.25;;;;;;;-0.31;100;96611.7;;;;
2021/12/19 01:38:19;;;;;;;38.2;15.25;;;;;;;-0.31;100;96611.7;;;;
2021/12/19 01:39:20;;;;;;;38.2;15.25;;;;;;;-0.31;100;96611.7;;;;
2021/12/19 01:40:21;;;;;;;38.2;15.25;;;;;;;-0.31;100;96611.7;;;;
2021/12/19 01:41:22;;;;;;;38.2;15.25;;;;;;;-0.31;100;96611.7;;;;
2021/12/19 01:42:23;;;;;;;38.2;15.25;;;;;;;-0.31;100;96611.7;;;;
2021/12/19 01:43:31;;;;;;;38.2;15.25;;;;;;;-0.31;100;96611.7;;;;
2021/12/19 01:44:31;;;;;;;38.2;15.25;;;;;;;-0.31;100;96611.7;;;;
2021/12/19 01:45:32;;;;;;;40.25;14.5;;;;;;;-0.27;100;96609.52;;;;
2021/12/19 01:46:36;;;;;;;40.25;14.5;;;;;;;-0.27;100;96609.52;;;;
2021/12/19 01:47:36;;;;;;;40.25;14.5;;;;;;;-0.27;100;96609.52;;;;
2021/12/19 01:48:38;;;;;;;40.25;14.5;;;;;;;-0.27;100;96609.52;;;;
2021/12/19 01:49:39;;;;;;;40.25;14.5;;;;;;;-0.27;100;96609.52;;;;
2021/12/19 01:50:41;;;;;;;40.25;14.5;;;;;;;-0.27;100;96609.52;;;;
2021/12/19 01:51:42;;;;;;;40.25;14.5;;;;;;;-0.27;100;96609.52;;;;
2021/12/19 01:52:43;;;;;;;40.25;14.5;;;;;;;-0.27;100;96609.52;;;;
2021/12/19 01:53:44;;;;;;;40.25;14.5;;;;;;;-0.27;100;96609.52;;;;
2021/12/19 01:54:44;;;;;;;40.25;14.5;;;;;;;-0.27;100;96609.52;;;;
2021/12/19 01:55:45;;;;;;;40.25;14.5;;;;;;;-0.27;100;96609.52;;;;
2021/12/19 01:56:47;;;;;;;37.35;14.6;;;;;;;-0.25;100;96607.57;;;;
2021/12/19 01:57:48;;;;;;;37.35;14.6;;;;;;;-0.25;100;96607.57;;;;
2021/12/19 01:58:48;;;;;;;37.35;14.6;;;;;;;-0.25;100;96607.57;;;;
2021/12/19 01:59:49;;;;;;;37.35;14.6;;;;;;;-0.25;100;96607.57;;;;
2021/12/19 02:00:50;;;;;;;37.35;14.6;;;;;;;-0.25;100;96607.57;;;;
2021/12/19 02:01:53;;;;;;;37.35;14.6;;;;;;;-0.25;100;96607.57;;;;
2021/12/19 02:02:56;;;;;;;37.35;14.6;;;;;;;-0.25;100;96607.57;;;;
2021/12/19 02:03:57;;;;;;;37.35;14.6;;;;;;;-0.25;100;96607.57;;;;
2021/12/19 02:04:58;;;;;;;37.35;14.6;;;;;;;-0.25;100;96607.57;;;;
2021/12/19 02:05:58;;;;;;;37.35;14.6;;;;;;;-0.25;100;96607.57;;;;
2021/12/19 02:06:59;;;;;;;37.35;14.6;;;;;;;-0.25;100;96607.57;;;;
2021/12/19 02:08:01;;;;;;;38.4;15.1;;;;;;;-0.2;100;96602.77;;;;
2021/12/19 02:09:06;;;;;;;38.4;15.1;;;;;;;-0.2;100;96602.77;;;;
2021/12/19 02:10:09;;;;;;;38.4;15.1;;;;;;;-0.2;100;96602.77;;;;
2021/12/19 02:11:09;;;;;;;38.4;15.1;;;;;;;-0.2;100;96602.77;;;;
2021/12/19 02:12:10;;;;;;;38.4;15.1;;;;;;;-0.2;100;96602.77;;;;
2021/12/19 02:13:12;;;;;;;38.4;15.1;;;;;;;-0.2;100;96602.77;;;;
2021/12/19 02:14:15;;;;;;;38.4;15.1;;;;;;;-0.2;100;96602.77;;;;
2021/12/19 02:15:18;;;;;;;38.4;15.1;;;;;;;-0.2;100;96602.77;;;;
2021/12/19 02:16:22;;;;;;;38.4;15.1;;;;;;;-0.2;100;96602.77;;;;
2021/12/19 02:17:22;;;;;;;38.4;15.1;;;;;;;-0.2;100;96602.77;;;;
2021/12/19 02:18:23;;;;;;;42.14999;15.75;;;;;;;-0.23;100;96605.63;;;;
2021/12/19 02:19:25;;;;;;;42.14999;15.75;;;;;;;-0.23;100;96605.63;;;;
2021/12/19 02:20:28;;;;;;;42.14999;15.75;;;;;;;-0.23;100;96605.63;;;;
2021/12/19 02:21:31;;;;;;;42.14999;15.75;;;;;;;-0.23;100;96605.63;;;;
2021/12/19 02:22:33;;;;;;;42.14999;15.75;;;;;;;-0.23;100;96605.63;;;;
2021/12/19 02:23:34;;;;;;;42.14999;15.75;;;;;;;-0.23;100;96605.63;;;;
2021/12/19 02:24:34;;;;;;;42.14999;15.75;;;;;;;-0.23;100;96605.63;;;;
2021/12/19 02:25:35;;;;;;;42.14999;15.75;;;;;;;-0.23;100;96605.63;;;;
2021/12/19 02:26:36;;;;;;;42.14999;15.75;;;;;;;-0.23;100;96605.63;;;;
2021/12/19 02:27:38;;;;;;;42.14999;15.75;;;;;;;-0.23;100;96605.63;;;;
2021/12/19 02:28:39;;;;;;;42.14999;15.75;;;;;;;-0.23;100;96605.63;;;;
2021/12/19 02:29:39;;;;;;;43.5;16.1;;;;;;;-0.22;100;96608.22;;;;
2021/12/19 02:30:40;;;;;;;43.5;16.1;;;;;;;-0.22;100;96608.22;;;;
2021/12/19 02:31:41;;;;;;;43.5;16.1;;;;;;;-0.22;100;96608.22;;;;
2021/12/19 02:32:41;;;;;;;43.5;16.1;;;;;;;-0.22;100;96608.22;;;;
2021/12/19 02:33:54;;;;;;;43.5;16.1;;;;;;;-0.22;100;96608.22;;;;
2021/12/19 02:34:58;;;;;;;43.5;16.1;;;;;;;-0.22;100;96608.22;;;;
2021/12/19 02:36:06;;;;;;;43.5;16.1;;;;;;;-0.22;100;96608.22;;;;
2021/12/19 02:37:14;;;;;;;43.5;16.1;;;;;;;-0.22;100;96608.22;;;;
2021/12/19 02:38:37;;;;;;;43.5;16.1;;;;;;;-0.22;100;96608.22;;;;
2021/12/19 02:39:53;;;;;;;43.5;16.1;;;;;;;-0.22;100;96608.22;;;;
2021/12/19 02:51:21;;;;;;;39.2;14.8;;;;;;;-0.19;100;96587.13;;;;
2021/12/19 02:52:22;;;;;;;39.2;14.8;;;;;;;-0.19;100;96587.13;;;;
2021/12/19 02:53:23;;;;;;;39.2;14.8;;;;;;;-0.19;100;96587.13;;;;
2021/12/19 02:54:30;;;;;;;39.2;14.8;;;;;;;-0.19;100;96587.13;;;;
2021/12/19 02:55:30;;;;;;;39.2;14.8;;;;;;;-0.19;100;96587.13;;;;
2021/12/19 02:56:31;;;;;;;39.2;14.8;;;;;;;-0.19;100;96587.13;;;;
2021/12/19 02:57:31;;;;;;;39.2;14.8;;;;;;;-0.19;100;96587.13;;;;
2021/12/19 02:58:32;;;;;;;39.2;14.8;;;;;;;-0.19;100;96587.13;;;;
2021/12/19 02:59:34;;;;;;;39.2;14.8;;;;;;;-0.19;100;96587.13;;;;
2021/12/19 03:00:35;;;;;;;39.2;14.8;;;;;;;-0.19;100;96587.13;;;;
2021/12/19 03:01:37;;;;;;;39.2;14.8;;;;;;;-0.19;100;96587.13;;;;
2021/12/19 03:02:37;;;;;;;43;15.8;;;;;;;-0.18;100;96592.35;;;;
2021/12/19 03:03:38;;;;;;;43;15.8;;;;;;;-0.18;100;96592.35;;;;
2021/12/19 03:04:38;;;;;;;43;15.8;;;;;;;-0.18;100;96592.35;;;;
2021/12/19 03:05:51;;;;;;;43;15.8;;;;;;;-0.18;100;96592.35;;;;
2021/12/19 03:06:52;;;;;;;43;15.8;;;;;;;-0.18;100;96592.35;;;;
2021/12/19 03:07:52;;;;;;;43;15.8;;;;;;;-0.18;100;96592.35;;;;
2021/12/19 03:08:57;;;;;;;43;15.8;;;;;;;-0.18;100;96592.35;;;;
2021/12/19 03:10:11;;;;;;;43;15.8;;;;;;;-0.18;100;96592.35;;;;
2021/12/19 03:11:49;;;;;;;43;15.8;;;;;;;-0.18;100;96592.35;;;;
2021/12/19 03:13:03;;;;;;;43;15.8;;;;;;;-0.18;100;96592.35;;;;
2021/12/19 03:19:14;;;;;;;40.35;13.75;;;;;;;-0.21;100;96581.17;;;;
2021/12/19 03:20:15;;;;;;;40.35;13.75;;;;;;;-0.21;100;96581.17;;;;
2021/12/19 03:21:17;;;;;;;40.35;13.75;;;;;;;-0.21;100;96581.17;;;;
2021/12/19 03:22:18;;;;;;;40.35;13.75;;;;;;;-0.21;100;96581.17;;;;
2021/12/19 03:23:18;;;;;;;40.35;13.75;;;;;;;-0.21;100;96581.17;;;;
2021/12/19 03:24:20;;;;;;;41.5;14.45;;;;;;;-0.26;100;96584.74;;;;
2021/12/19 03:25:20;;;;;;;41.5;14.45;;;;;;;-0.26;100;96584.74;;;;
2021/12/19 03:26:21;;;;;;;41.5;14.45;;;;;;;-0.26;100;96584.74;;;;
2021/12/19 03:27:22;;;;;;;41.5;14.45;;;;;;;-0.26;100;96584.74;;;;
2021/12/19 03:28:22;;;;;;;41.5;14.45;;;;;;;-0.26;100;96584.74;;;;
2021/12/19 03:29:23;;;;;;;41.5;14.45;;;;;;;-0.26;100;96584.74;;;;
2021/12/19 03:30:23;;;;;;;41.5;14.45;;;;;;;-0.26;100;96584.74;;;;
2021/12/19 03:31:24;;;;;;;41.5;14.45;;;;;;;-0.26;100;96584.74;;;;
2021/12/19 03:32:26;;;;;;;41.5;14.45;;;;;;;-0.26;100;96584.74;;;;
2021/12/19 03:33:27;;;;;;;41.5;14.45;;;;;;;-0.26;100;96584.74;;;;
2021/12/19 03:34:27;;;;;;;41.5;14.45;;;;;;;-0.26;100;96584.74;;;;
2021/12/19 03:35:29;;;;;;;39.05;14.5;;;;;;;-0.31;100;96572.8;;;;
2021/12/19 03:36:31;;;;;;;39.05;14.5;;;;;;;-0.31;100;96572.8;;;;
2021/12/19 03:37:32;;;;;;;39.05;14.5;;;;;;;-0.31;100;96572.8;;;;
2021/12/19 03:38:37;;;;;;;39.05;14.5;;;;;;;-0.31;100;96572.8;;;;
2021/12/19 03:39:55;;;;;;;39.05;14.5;;;;;;;-0.31;100;96572.8;;;;
2021/12/19 03:41:10;;;;;;;39.05;14.5;;;;;;;-0.31;100;96572.8;;;;
2021/12/19 03:42:12;;;;;;;39.05;14.5;;;;;;;-0.31;100;96572.8;;;;
2021/12/19 03:43:13;;;;;;;39.05;14.5;;;;;;;-0.31;100;96572.8;;;;
2021/12/19 03:44:17;;;;;;;39.05;14.5;;;;;;;-0.31;100;96572.8;;;;
2021/12/19 03:45:18;;;;;;;39.05;14.5;;;;;;;-0.31;100;96572.8;;;;
2021/12/19 03:46:21;;;;;;;43.5;14.8;;;;;;;-0.35;100;96540.41;;;;
2021/12/19 03:47:22;;;;;;;43.5;14.8;;;;;;;-0.35;100;96540.41;;;;
2021/12/19 03:48:22;;;;;;;43.5;14.8;;;;;;;-0.35;100;96540.41;;;;
2021/12/19 03:49:24;;;;;;;43.5;14.8;;;;;;;-0.35;100;96540.41;;;;
2021/12/19 03:50:24;;;;;;;43.5;14.8;;;;;;;-0.35;100;96540.41;;;;
2021/12/19 03:51:25;;;;;;;43.5;14.8;;;;;;;-0.35;100;96540.41;;;;
2021/12/19 03:52:25;;;;;;;43.5;14.8;;;;;;;-0.35;100;96540.41;;;;
2021/12/19 03:53:26;;;;;;;43.5;14.8;;;;;;;-0.35;100;96540.41;;;;
2021/12/19 03:54:27;;;;;;;43.5;14.8;;;;;;;-0.35;100;96540.41;;;;
2021/12/19 03:55:27;;;;;;;43.5;14.8;;;;;;;-0.35;100;96540.41;;;;
2021/12/19 03:56:28;;;;;;;43.5;14.8;;;;;;;-0.35;100;96540.41;;;;
2021/12/19 03:57:29;;;;;;;44;15.3;;;;;;;-0.38;100;96545.58;;;;
2021/12/19 03:58:30;;;;;;;44;15.3;;;;;;;-0.38;100;96545.58;;;;
2021/12/19 03:59:31;;;;;;;44;15.3;;;;;;;-0.38;100;96545.58;;;;
2021/12/19 04:00:32;;;;;;;44;15.3;;;;;;;-0.38;100;96545.58;;;;
2021/12/19 04:01:33;;;;;;;44;15.3;;;;;;;-0.38;100;96545.58;;;;
2021/12/19 04:02:33;;;;;;;44;15.3;;;;;;;-0.38;100;96545.58;;;;
2021/12/19 04:03:34;;;;;;;44;15.3;;;;;;;-0.38;100;96545.58;;;;
2021/12/19 04:04:37;;;;;;;44;15.3;;;;;;;-0.38;100;96545.58;;;;
2021/12/19 04:05:38;;;;;;;44;15.3;;;;;;;-0.38;100;96545.58;;;;
2021/12/19 04:06:39;;;;;;;44;15.3;;;;;;;-0.38;100;96545.58;;;;
2021/12/19 04:07:39;;;;;;;44;15.3;;;;;;;-0.38;100;96545.58;;;;
2021/12/19 04:08:40;;;;;;;45.95;15.2;;;;;;;-0.38;100;96544.64;;;;
2021/12/19 04:09:40;;;;;;;45.95;15.2;;;;;;;-0.38;100;96544.64;;;;
2021/12/19 04:10:41;;;;;;;45.95;15.2;;;;;;;-0.38;100;96544.64;;;;
2021/12/19 04:11:42;;;;;;;45.95;15.2;;;;;;;-0.38;100;96544.64;;;;
2021/12/19 04:12:43;;;;;;;45.95;15.2;;;;;;;-0.38;100;96544.64;;;;
2021/12/19 04:13:44;;;;;;;45.95;15.2;;;;;;;-0.38;100;96544.64;;;;
2021/12/19 04:14:44;;;;;;;45.95;15.2;;;;;;;-0.38;100;96544.64;;;;
2021/12/19 04:15:45;;;;;;;45.95;15.2;;;;;;;-0.38;100;96544.64;;;;
2021/12/19 04:16:46;;;;;;;45.95;15.2;;;;;;;-0.38;100;96544.64;;;;
2021/12/19 04:17:46;;;;;;;45.95;15.2;;;;;;;-0.38;100;96544.64;;;;
2021/12/19 04:18:47;;;;;;;45.95;15.2;;;;;;;-0.38;100;96544.64;;;;
2021/12/19 04:19:49;;;;;;;43.85;15.1;;;;;;;-0.29;100;96533.2;;;;
2021/12/19 04:20:49;;;;;;;43.85;15.1;;;;;;;-0.29;100;96533.2;;;;
2021/12/19 04:21:50;;;;;;;43.85;15.1;;;;;;;-0.29;100;96533.2;;;;
2021/12/19 04:22:51;;;;;;;43.85;15.1;;;;;;;-0.29;100;96533.2;;;;
2021/12/19 04:23:52;;;;;;;43.85;15.1;;;;;;;-0.29;100;96533.2;;;;
2021/12/19 04:24:53;;;;;;;43.85;15.1;;;;;;;-0.29;100;96533.2;;;;
2021/12/19 04:25:54;;;;;;;43.85;15.1;;;;;;;-0.29;100;96533.2;;;;
2021/12/19 04:26:54;;;;;;;43.85;15.1;;;;;;;-0.29;100;96533.2;;;;
2021/12/19 04:27:55;;;;;;;43.85;15.1;;;;;;;-0.29;100;96533.2;;;;
2021/12/19 04:28:56;;;;;;;43.85;15.1;;;;;;;-0.29;100;96533.2;;;;
2021/12/19 04:29:56;;;;;;;41.95;15.5;;;;;;;-0.25;100;96507.64;;;;
2021/12/19 04:30:59;;;;;;;41.95;15.5;;;;;;;-0.25;100;96507.64;;;;
2021/12/19 04:31:59;;;;;;;41.95;15.5;;;;;;;-0.25;100;96507.64;;;;
2021/12/19 04:33:02;;;;;;;41.95;15.5;;;;;;;-0.25;100;96507.64;;;;
2021/12/19 04:34:03;;;;;;;41.95;15.5;;;;;;;-0.25;100;96507.64;;;;
2021/12/19 04:35:04;;;;;;;41.95;15.5;;;;;;;-0.25;100;96507.64;;;;
2021/12/19 04:36:08;;;;;;;41.95;15.5;;;;;;;-0.25;100;96507.64;;;;
2021/12/19 04:37:26;;;;;;;41.95;15.5;;;;;;;-0.25;100;96507.64;;;;
2021/12/19 04:39:39;;;;;;;41.95;15.5;;;;;;;-0.25;100;96507.64;;;;
2021/12/19 04:40:48;;;;;;;41.95;15.5;;;;;;;-0.25;100;96507.64;;;;
2021/12/19 04:42:26;;;;;;;37.45;14.15;;;;;;;-0.26;100;96517.02;;;;
2021/12/19 04:44:21;;;;;;;37.45;14.15;;;;;;;-0.26;100;96517.02;;;;
2021/12/19 04:51:10;;;;;;;37.45;14.15;;;;;;;-0.26;100;96517.02;;;;
2021/12/19 04:52:38;;;;;;;34.4;14.25;;;;;;;-0.29;100;96500.12;;;;
2021/12/19 04:53:53;;;;;;;34.4;14.25;;;;;;;-0.29;100;96500.12;;;;
2021/12/19 04:55:13;;;;;;;34.4;14.25;;;;;;;-0.29;100;96500.12;;;;
2021/12/19 04:56:26;;;;;;;34.4;14.25;;;;;;;-0.29;100;96500.12;;;;
2021/12/19 04:57:34;;;;;;;34.4;14.25;;;;;;;-0.29;100;96500.12;;;;
2021/12/19 04:59:10;;;;;;;34.4;14.25;;;;;;;-0.29;100;96500.12;;;;
2021/12/19 05:00:13;;;;;;;34.4;14.25;;;;;;;-0.29;100;96500.12;;;;
2021/12/19 05:01:33;;;;;;;34.4;14.25;;;;;;;-0.29;100;96500.12;;;;
2021/12/19 05:02:46;;;;;;;34.4;14.25;;;;;;;-0.29;100;96500.12;;;;
2021/12/19 05:03:52;;;;;;;36.1;13.7;;;;;;;-0.35;100;96498.02;;;;
2021/12/19 05:05:19;;;;;;;36.1;13.7;;;;;;;-0.35;100;96498.02;;;;
2021/12/19 05:06:34;;;;;;;36.1;13.7;;;;;;;-0.35;100;96498.02;;;;
2021/12/19 05:18:04;;;;;;;32.7;13.6;;;;;;;-0.35;100;96494.45;;;;
2021/12/19 05:19:10;;;;;;;32.7;13.6;;;;;;;-0.35;100;96494.45;;;;
2021/12/19 05:20:15;;;;;;;32.7;13.6;;;;;;;-0.35;100;96494.45;;;;
2021/12/19 05:21:18;;;;;;;32.7;13.6;;;;;;;-0.35;100;96494.45;;;;
2021/12/19 05:22:21;;;;;;;32.7;13.6;;;;;;;-0.35;100;96494.45;;;;
2021/12/19 05:23:27;;;;;;;32.7;13.6;;;;;;;-0.35;100;96494.45;;;;
2021/12/19 05:24:46;;;;;;;32.7;13.6;;;;;;;-0.35;100;96494.45;;;;
2021/12/19 05:25:47;;;;;;;29.4;13.9;;;;;;;-0.35;100;96466.17;;;;
2021/12/19 05:26:48;;;;;;;29.4;13.9;;;;;;;-0.35;100;96466.17;;;;
2021/12/19 05:27:48;;;;;;;29.4;13.9;;;;;;;-0.35;100;96466.17;;;;
2021/12/19 05:28:52;;;;;;;29.4;13.9;;;;;;;-0.35;100;96466.17;;;;
2021/12/19 05:29:53;;;;;;;29.4;13.9;;;;;;;-0.35;100;96466.17;;;;
2021/12/19 05:30:53;;;;;;;29.4;13.9;;;;;;;-0.35;100;96466.17;;;;
2021/12/19 05:31:54;;;;;;;29.4;13.9;;;;;;;-0.35;100;96466.17;;;;
2021/12/19 05:32:55;;;;;;;29.4;13.9;;;;;;;-0.35;100;96466.17;;;;
2021/12/19 05:33:56;;;;;;;29.4;13.9;;;;;;;-0.35;100;96466.17;;;;
2021/12/19 05:34:56;;;;;;;29.4;13.9;;;;;;;-0.35;100;96466.17;;;;
2021/12/19 05:36:05;;;;;;;23.35;12.45;;;;;;;-0.38;100;96471.69;;;;
2021/12/19 05:48:23;;;;;;;25.6;12.45;;;;;;;-0.52;100;96498.72;;;;
2021/12/19 05:49:24;;;;;;;25.6;12.45;;;;;;;-0.52;100;96498.72;;;;
2021/12/19 05:50:25;;;;;;;25.6;12.45;;;;;;;-0.52;100;96498.72;;;;
2021/12/19 05:51:25;;;;;;;25.6;12.45;;;;;;;-0.52;100;96498.72;;;;
2021/12/19 05:52:26;;;;;;;25.6;12.45;;;;;;;-0.52;100;96498.72;;;;
2021/12/19 05:53:27;;;;;;;25.6;12.45;;;;;;;-0.52;100;96498.72;;;;
2021/12/19 05:54:27;;;;;;;25.6;12.45;;;;;;;-0.52;100;96498.72;;;;
2021/12/19 05:55:28;;;;;;;25.6;12.45;;;;;;;-0.52;100;96498.72;;;;
2021/12/19 05:56:28;;;;;;;25.6;12.45;;;;;;;-0.52;100;96498.72;;;;
2021/12/19 05:57:29;;;;;;;25.6;12.45;;;;;;;-0.52;100;96498.72;;;;
2021/12/19 05:58:29;;;;;;;23.95;12.5;;;;;;;-0.52;100;96496.06;;;;
2021/12/19 05:59:30;;;;;;;23.95;12.5;;;;;;;-0.52;100;96496.06;;;;
2021/12/19 06:00:32;;;;;;;23.95;12.5;;;;;;;-0.52;100;96496.06;;;;
2021/12/19 06:01:34;;;;;;;23.95;12.5;;;;;;;-0.52;100;96496.06;;;;
2021/12/19 06:02:36;;;;;;;23.95;12.5;;;;;;;-0.52;100;96496.06;;;;
2021/12/19 06:03:36;;;;;;;23.95;12.5;;;;;;;-0.52;100;96496.06;;;;
2021/12/19 06:04:37;;;;;;;23.95;12.5;;;;;;;-0.52;100;96496.06;;;;
2021/12/19 06:05:37;;;;;;;23.95;12.5;;;;;;;-0.52;100;96496.06;;;;
2021/12/19 06:06:38;;;;;;;23.95;12.5;;;;;;;-0.52;100;96496.06;;;;
2021/12/19 06:07:38;;;;;;;23.95;12.5;;;;;;;-0.52;100;96496.06;;;;
2021/12/19 06:08:39;;;;;;;24.5;12.6;;;;;;;-0.52;100;96475.19;;;;
2021/12/19 06:09:40;;;;;;;24.5;12.6;;;;;;;-0.52;100;96475.19;;;;
2021/12/19 06:10:40;;;;;;;24.5;12.6;;;;;;;-0.52;100;96475.19;;;;
2021/12/19 06:11:41;;;;;;;24.5;12.6;;;;;;;-0.52;100;96475.19;;;;
2021/12/19 06:12:42;;;;;;;24.5;12.6;;;;;;;-0.52;100;96475.19;;;;
2021/12/19 06:13:44;;;;;;;24.5;12.6;;;;;;;-0.52;100;96475.19;;;;
2021/12/19 06:14:44;;;;;;;24.5;12.6;;;;;;;-0.52;100;96475.19;;;;
2021/12/19 06:15:45;;;;;;;24.5;12.6;;;;;;;-0.52;100;96475.19;;;;
2021/12/19 06:16:46;;;;;;;24.5;12.6;;;;;;;-0.52;100;96475.19;;;;
2021/12/19 06:17:46;;;;;;;24.5;12.6;;;;;;;-0.52;100;96475.19;;;;
2021/12/19 06:18:47;;;;;;;24.5;12.6;;;;;;;-0.52;100;96475.19;;;;
2021/12/19 06:19:47;;;;;;;22.9;12.65;;;;;;;-0.62;100;96480.14;;;;
2021/12/19 06:20:48;;;;;;;22.9;12.65;;;;;;;-0.62;100;96480.14;;;;
2021/12/19 06:21:48;;;;;;;22.9;12.65;;;;;;;-0.62;100;96480.14;;;;
2021/12/19 06:22:49;;;;;;;22.9;12.65;;;;;;;-0.62;100;96480.14;;;;
2021/12/19 06:23:49;;;;;;;22.9;12.65;;;;;;;-0.62;100;96480.14;;;;
2021/12/19 06:24:50;;;;;;;22.9;12.65;;;;;;;-0.62;100;96480.14;;;;
2021/12/19 06:25:50;;;;;;;22.9;12.65;;;;;;;-0.62;100;96480.14;;;;
2021/12/19 06:26:51;;;;;;;22.9;12.65;;;;;;;-0.62;100;96480.14;;;;
2021/12/19 06:27:51;;;;;;;22.9;12.65;;;;;;;-0.62;100;96480.14;;;;
2021/12/19 06:28:52;;;;;;;22.9;12.65;;;;;;;-0.62;100;96480.14;;;;
2021/12/19 06:29:52;;;;;;;22.9;12.65;;;;;;;-0.62;100;96480.14;;;;
2021/12/19 06:30:53;;;;;;;25.3;12.45;;;;;;;-0.59;100;96471.42;;;;
2021/12/19 06:31:54;;;;;;;25.3;12.45;;;;;;;-0.59;100;96471.42;;;;
2021/12/19 06:32:55;;;;;;;25.3;12.45;;;;;;;-0.59;100;96471.42;;;;
2021/12/19 06:33:56;;;;;;;25.3;12.45;;;;;;;-0.59;100;96471.42;;;;
2021/12/19 06:34:59;;;;;;;25.3;12.45;;;;;;;-0.59;100;96471.42;;;;
2021/12/19 06:36:00;;;;;;;25.3;12.45;;;;;;;-0.59;100;96471.42;;;;
2021/12/19 06:37:00;;;;;;;25.3;12.45;;;;;;;-0.59;100;96471.42;;;;
2021/12/19 06:38:01;;;;;;;25.3;12.45;;;;;;;-0.59;100;96471.42;;;;
2021/12/19 06:39:03;;;;;;;25.3;12.45;;;;;;;-0.59;100;96471.42;;;;
2021/12/19 06:40:04;;;;;;;25.3;12.45;;;;;;;-0.59;100;96471.42;;;;
2021/12/19 06:41:07;;;;;;;25.3;12.45;;;;;;;-0.59;100;96471.42;;;;
2021/12/19 06:42:08;;;;;;;22.4;11.95;;;;;;;-0.57;100;96462.84;;;;
2021/12/19 06:43:09;;;;;;;22.4;11.95;;;;;;;-0.57;100;96462.84;;;;
2021/12/19 06:44:10;;;;;;;22.4;11.95;;;;;;;-0.57;100;96462.84;;;;
2021/12/19 06:45:10;;;;;;;22.4;11.95;;;;;;;-0.57;100;96462.84;;;;
2021/12/19 06:46:11;;;;;;;22.4;11.95;;;;;;;-0.57;100;96462.84;;;;
2021/12/19 06:47:12;;;;;;;22.4;11.95;;;;;;;-0.57;100;96462.84;;;;
2021/12/19 06:48:13;;;;;;;22.4;11.95;;;;;;;-0.57;100;96462.84;;;;
2021/12/19 06:49:13;;;;;;;22.4;11.95;;;;;;;-0.57;100;96462.84;;;;
2021/12/19 06:50:15;;;;;;;22.4;11.95;;;;;;;-0.57;100;96462.84;;;;
2021/12/19 06:51:17;;;;;;;22.4;11.95;;;;;;;-0.57;100;96462.84;;;;
2021/12/19 06:52:17;;;;;;;22.4;11.95;;;;;;;-0.57;100;96462.84;;;;
2021/12/19 06:53:18;;;;;;;24.2;12.85;;;;;;;-0.57;100;96458.44;;;;
2021/12/19 06:54:18;;;;;;;24.2;12.85;;;;;;;-0.57;100;96458.44;;;;
2021/12/19 06:55:19;;;;;;;24.2;12.85;;;;;;;-0.57;100;96458.44;;;;
2021/12/19 06:56:20;;;;;;;24.2;12.85;;;;;;;-0.57;100;96458.44;;;;
2021/12/19 06:57:20;;;;;;;24.2;12.85;;;;;;;-0.57;100;96458.44;;;;
2021/12/19 06:58:21;;;;;;;24.2;12.85;;;;;;;-0.57;100;96458.44;;;;
2021/12/19 06:59:22;;;;;;;24.2;12.85;;;;;;;-0.57;100;96458.44;;;;
2021/12/19 07:00:22;;;;;;;24.2;12.85;;;;;;;-0.57;100;96458.44;;;;
2021/12/19 07:01:24;;;;;;;24.2;12.85;;;;;;;-0.57;100;96458.44;;;;
2021/12/19 07:02:25;;;;;;;24.2;12.85;;;;;;;-0.57;100;96458.44;;;;
2021/12/19 07:03:26;;;;;;;24.2;12.85;;;;;;;-0.57;100;96458.44;;;;
2021/12/19 07:04:26;;;;;;;23.75;12.8;;;;;;;-0.57;100;96456.2;;;;
2021/12/19 07:05:27;;;;;;;23.75;12.8;;;;;;;-0.57;100;96456.2;;;;
2021/12/19 07:06:28;;;;;;;23.75;12.8;;;;;;;-0.57;100;96456.2;;;;